Gaithersburg, Maryland
Current Conditions -  °F | °C
As of 8:55 AM on Wednesday 28 Jan 2015 (Local Time) from KGAI Reporting Station
Clear Clear  
Wind Chill:   Ceiling: Unl
Heat Index: 19°   Visibility: 10mi
Dew Point:   Wind: 14mph
Humidity: 54%   Direction: 310°NW
Pressure: 30.22"   Gusts: 17mph
Location:  39.14°N, 77.19°W
Report Text: KGAI 281355Z 31012G15KT 10SM CLR M07/M15 A3022 RMK AO1
Loading
Personal Weather Stations






























Interactive Weather Map New forecast layout! Learn more

10-Day Weather Forecast

Advertisements
Track Severe Weather on mobile